sensor_id;sensor_type;location;lat;lon;timestamp;P1;durP1;ratioP1;P2;durP2;ratioP2
16387;SDS011;8303;53.446;9.988;2023-03-12T05:47:47;22.77;;;13.77;;
16387;SDS011;8303;53.446;9.988;2023-03-12T05:50:14;18.53;;;13.50;;
16387;SDS011;8303;53.446;9.988;2023-03-12T05:52:41;22.10;;;13.53;;
16387;SDS011;8303;53.446;9.988;2023-03-12T05:55:08;19.63;;;13.70;;
16387;SDS011;8303;53.446;9.988;2023-03-12T05:57:36;20.17;;;14.50;;
16387;SDS011;8303;53.446;9.988;2023-03-12T06:00:03;25.00;;;14.90;;
16387;SDS011;8303;53.446;9.988;2023-03-12T06:02:31;21.83;;;14.33;;
16387;SDS011;8303;53.446;9.988;2023-03-12T06:05:02;19.77;;;15.40;;
16387;SDS011;8303;53.446;9.988;2023-03-12T06:07:30;22.37;;;15.23;;
16387;SDS011;8303;53.446;9.988;2023-03-12T06:09:57;16.97;;;13.73;;
16387;SDS011;8303;53.446;9.988;2023-03-12T06:12:24;17.47;;;13.63;;
16387;SDS011;8303;53.446;9.988;2023-03-12T06:14:51;17.80;;;14.17;;
16387;SDS011;8303;53.446;9.988;2023-03-12T06:17:18;16.10;;;13.87;;
16387;SDS011;8303;53.446;9.988;2023-03-12T06:19:49;20.87;;;13.60;;
16387;SDS011;8303;53.446;9.988;2023-03-12T06:22:18;23.57;;;14.47;;
16387;SDS011;8303;53.446;9.988;2023-03-12T06:24:46;15.67;;;12.77;;
16387;SDS011;8303;53.446;9.988;2023-03-12T06:27:13;17.63;;;12.50;;
16387;SDS011;8303;53.446;9.988;2023-03-12T06:29:40;25.70;;;14.33;;
16387;SDS011;8303;53.446;9.988;2023-03-12T06:32:07;44.57;;;13.70;;
16387;SDS011;8303;53.446;9.988;2023-03-12T06:34:34;22.57;;;11.10;;
16387;SDS011;8303;53.446;9.988;2023-03-12T06:37:01;17.00;;;12.47;;
16387;SDS011;8303;53.446;9.988;2023-03-12T06:39:29;21.67;;;11.70;;
16387;SDS011;8303;53.446;9.988;2023-03-12T06:41:56;13.93;;;11.27;;
16387;SDS011;8303;53.446;9.988;2023-03-12T06:44:24;21.53;;;11.30;;
16387;SDS011;8303;53.446;9.988;2023-03-12T06:46:51;16.90;;;11.50;;
16387;SDS011;8303;53.446;9.988;2023-03-12T06:49:18;18.57;;;11.40;;
16387;SDS011;8303;53.446;9.988;2023-03-12T06:51:45;13.27;;;11.20;;
16387;SDS011;8303;53.446;9.988;2023-03-12T06:54:12;15.60;;;11.30;;
16387;SDS011;8303;53.446;9.988;2023-03-12T06:56:40;16.27;;;10.67;;
16387;SDS011;8303;53.446;9.988;2023-03-12T06:59:08;20.77;;;11.10;;
16387;SDS011;8303;53.446;9.988;2023-03-12T07:01:35;13.93;;;10.03;;
16387;SDS011;8303;53.446;9.988;2023-03-12T07:04:02;11.33;;;9.60;;
16387;SDS011;8303;53.446;9.988;2023-03-12T07:06:29;15.50;;;10.00;;
16387;SDS011;8303;53.446;9.988;2023-03-12T07:08:56;12.73;;;9.87;;
16387;SDS011;8303;53.446;9.988;2023-03-12T07:11:23;13.50;;;10.73;;
16387;SDS011;8303;53.446;9.988;2023-03-12T07:13:51;14.63;;;10.20;;
16387;SDS011;8303;53.446;9.988;2023-03-12T07:16:18;14.43;;;10.60;;
16387;SDS011;8303;53.446;9.988;2023-03-12T07:18:47;18.97;;;10.63;;
16387;SDS011;8303;53.446;9.988;2023-03-12T07:21:14;14.07;;;9.40;;
16387;SDS011;8303;53.446;9.988;2023-03-12T07:23:46;13.13;;;10.90;;
16387;SDS011;8303;53.446;9.988;2023-03-12T07:26:14;13.63;;;10.23;;
16387;SDS011;8303;53.446;9.988;2023-03-12T07:28:41;19.60;;;10.23;;
16387;SDS011;8303;53.446;9.988;2023-03-12T07:31:11;23.30;;;11.10;;
16387;SDS011;8303;53.446;9.988;2023-03-12T07:33:38;19.17;;;10.43;;
16387;SDS011;8303;53.446;9.988;2023-03-12T07:36:06;15.13;;;10.83;;
16387;SDS011;8303;53.446;9.988;2023-03-12T07:38:35;15.47;;;9.83;;
16387;SDS011;8303;53.446;9.988;2023-03-12T07:41:03;13.90;;;9.33;;
16387;SDS011;8303;53.446;9.988;2023-03-12T07:43:30;14.23;;;9.47;;
16387;SDS011;8303;53.446;9.988;2023-03-12T07:45:57;14.20;;;9.47;;
16387;SDS011;8303;53.446;9.988;2023-03-12T07:48:25;11.93;;;10.00;;
16387;SDS011;8303;53.446;9.988;2023-03-12T07:50:52;13.03;;;9.10;;
16387;SDS011;8303;53.446;9.988;2023-03-12T07:53:19;10.40;;;9.07;;
16387;SDS011;8303;53.446;9.988;2023-03-12T07:55:47;14.03;;;8.97;;
16387;SDS011;8303;53.446;9.988;2023-03-12T07:58:14;11.47;;;8.53;;
16387;SDS011;8303;53.446;9.988;2023-03-12T08:00:41;10.20;;;8.07;;
16387;SDS011;8303;53.446;9.988;2023-03-12T08:03:08;15.83;;;8.97;;
16387;SDS011;8303;53.446;9.988;2023-03-12T08:05:39;9.80;;;8.80;;
16387;SDS011;8303;53.446;9.988;2023-03-12T08:08:06;12.03;;;8.43;;
16387;SDS011;8303;53.446;9.988;2023-03-12T08:10:33;8.93;;;7.93;;
16387;SDS011;8303;53.446;9.988;2023-03-12T08:13:01;11.70;;;8.13;;
16387;SDS011;8303;53.446;9.988;2023-03-12T08:15:30;14.47;;;8.03;;
16387;SDS011;8303;53.446;9.988;2023-03-12T08:18:02;12.93;;;8.33;;
16387;SDS011;8303;53.446;9.988;2023-03-12T08:20:29;13.73;;;7.67;;
16387;SDS011;8303;53.446;9.988;2023-03-12T08:22:58;10.37;;;7.67;;
16387;SDS011;8303;53.446;9.988;2023-03-12T08:25:25;9.37;;;6.90;;
16387;SDS011;8303;53.446;9.988;2023-03-12T08:27:54;7.60;;;6.80;;
16387;SDS011;8303;53.446;9.988;2023-03-12T08:30:21;9.03;;;7.30;;
16387;SDS011;8303;53.446;9.988;2023-03-12T08:32:48;10.50;;;7.70;;
16387;SDS011;8303;53.446;9.988;2023-03-12T08:35:17;8.40;;;7.50;;
16387;SDS011;8303;53.446;9.988;2023-03-12T08:37:44;7.43;;;6.70;;
16387;SDS011;8303;53.446;9.988;2023-03-12T08:40:13;8.97;;;8.17;;
16387;SDS011;8303;53.446;9.988;2023-03-12T08:42:43;12.30;;;7.77;;
16387;SDS011;8303;53.446;9.988;2023-03-12T08:45:11;9.97;;;7.07;;
16387;SDS011;8303;53.446;9.988;2023-03-12T08:47:38;10.03;;;7.97;;
16387;SDS011;8303;53.446;9.988;2023-03-12T08:50:06;12.57;;;7.10;;
16387;SDS011;8303;53.446;9.988;2023-03-12T08:52:34;9.63;;;7.43;;
16387;SDS011;8303;53.446;9.988;2023-03-12T08:55:01;8.37;;;7.57;;
16387;SDS011;8303;53.446;9.988;2023-03-12T08:57:31;13.33;;;7.53;;
16387;SDS011;8303;53.446;9.988;2023-03-12T08:59:58;11.67;;;6.20;;
16387;SDS011;8303;53.446;9.988;2023-03-12T09:02:25;7.87;;;7.03;;
16387;SDS011;8303;53.446;9.988;2023-03-12T09:04:52;9.80;;;7.93;;
16387;SDS011;8303;53.446;9.988;2023-03-12T09:07:19;8.97;;;7.47;;
16387;SDS011;8303;53.446;9.988;2023-03-12T09:09:50;7.77;;;6.90;;
16387;SDS011;8303;53.446;9.988;2023-03-12T09:12:34;10.67;;;7.43;;
16387;SDS011;8303;53.446;9.988;2023-03-12T09:15:57;9.50;;;7.93;;
16387;SDS011;8303;53.446;9.988;2023-03-12T09:18:25;16.20;;;8.10;;
16387;SDS011;8303;53.446;9.988;2023-03-12T09:20:51;8.03;;;7.23;;
16387;SDS011;8303;53.446;9.988;2023-03-12T09:23:18;11.13;;;7.93;;
16387;SDS011;8303;53.446;9.988;2023-03-12T09:25:46;14.60;;;8.40;;
16387;SDS011;8303;53.446;9.988;2023-03-12T09:28:15;10.47;;;7.43;;
16387;SDS011;8303;53.446;9.988;2023-03-12T09:30:44;8.90;;;8.00;;
16387;SDS011;8303;53.446;9.988;2023-03-12T09:33:12;9.33;;;8.23;;
16387;SDS011;8303;53.446;9.988;2023-03-12T09:35:40;12.53;;;6.80;;
16387;SDS011;8303;53.446;9.988;2023-03-12T09:38:07;11.00;;;8.23;;
16387;SDS011;8303;53.446;9.988;2023-03-12T09:40:36;9.07;;;8.20;;
16387;SDS011;8303;53.446;9.988;2023-03-12T09:43:05;15.07;;;9.03;;
16387;SDS011;8303;53.446;9.988;2023-03-12T09:45:37;10.43;;;8.97;;
16387;SDS011;8303;53.446;9.988;2023-03-12T09:48:11;14.43;;;9.07;;
16387;SDS011;8303;53.446;9.988;2023-03-12T09:50:42;8.87;;;7.97;;
16387;SDS011;8303;53.446;9.988;2023-03-12T09:53:13;9.90;;;8.50;;
16387;SDS011;8303;53.446;9.988;2023-03-12T09:55:49;9.23;;;8.33;;
16387;SDS011;8303;53.446;9.988;2023-03-12T09:58:19;11.57;;;9.33;;
16387;SDS011;8303;53.446;9.988;2023-03-12T10:00:52;11.50;;;10.40;;
16387;SDS011;8303;53.446;9.988;2023-03-12T10:03:30;13.07;;;10.27;;
16387;SDS011;8303;53.446;9.988;2023-03-12T10:06:11;11.90;;;10.70;;
16387;SDS011;8303;53.446;9.988;2023-03-12T10:08:45;13.03;;;12.03;;
16387;SDS011;8303;53.446;9.988;2023-03-12T10:11:24;13.57;;;11.63;;
16387;SDS011;8303;53.446;9.988;2023-03-12T10:14:01;16.97;;;14.70;;
16387;SDS011;8303;53.446;9.988;2023-03-12T10:16:44;24.50;;;15.63;;
16387;SDS011;8303;53.446;9.988;2023-03-12T10:19:22;12.70;;;11.60;;
16387;SDS011;8303;53.446;9.988;2023-03-12T10:22:03;13.10;;;11.83;;
16387;SDS011;8303;53.446;9.988;2023-03-12T10:24:40;16.77;;;15.03;;
16387;SDS011;8303;53.446;9.988;2023-03-12T10:27:16;13.53;;;12.27;;
16387;SDS011;8303;53.446;9.988;2023-03-12T10:29:45;14.30;;;12.90;;
16387;SDS011;8303;53.446;9.988;2023-03-12T10:32:16;17.37;;;15.27;;
16387;SDS011;8303;53.446;9.988;2023-03-12T10:34:48;17.37;;;15.50;;
16387;SDS011;8303;53.446;9.988;2023-03-12T10:37:19;15.50;;;14.07;;
16387;SDS011;8303;53.446;9.988;2023-03-12T10:39:48;17.10;;;15.60;;
16387;SDS011;8303;53.446;9.988;2023-03-12T10:42:16;15.63;;;14.03;;
16387;SDS011;8303;53.446;9.988;2023-03-12T10:44:45;16.97;;;15.80;;
16387;SDS011;8303;53.446;9.988;2023-03-12T10:47:29;20.70;;;17.43;;
16387;SDS011;8303;53.446;9.988;2023-03-12T10:50:13;21.57;;;19.70;;
16387;SDS011;8303;53.446;9.988;2023-03-12T10:52:41;35.77;;;33.33;;
16387;SDS011;8303;53.446;9.988;2023-03-12T10:55:10;25.10;;;23.33;;
16387;SDS011;8303;53.446;9.988;2023-03-12T10:57:44;47.17;;;44.03;;
16387;SDS011;8303;53.446;9.988;2023-03-12T11:00:16;42.57;;;40.03;;
16387;SDS011;8303;53.446;9.988;2023-03-12T11:02:46;28.70;;;26.77;;
16387;SDS011;8303;53.446;9.988;2023-03-12T11:05:23;37.37;;;34.33;;
16387;SDS011;8303;53.446;9.988;2023-03-12T11:07:51;24.90;;;23.03;;
16387;SDS011;8303;53.446;9.988;2023-03-12T11:10:20;37.90;;;35.40;;
16387;SDS011;8303;53.446;9.988;2023-03-12T11:15:47;42.87;;;40.03;;
16387;SDS011;8303;53.446;9.988;2023-03-12T11:18:20;40.57;;;38.17;;
16387;SDS011;8303;53.446;9.988;2023-03-12T11:20:50;40.33;;;37.30;;
16387;SDS011;8303;53.446;9.988;2023-03-12T11:23:21;39.87;;;37.20;;
16387;SDS011;8303;53.446;9.988;2023-03-12T11:25:50;30.00;;;27.87;;
16387;SDS011;8303;53.446;9.988;2023-03-12T11:28:20;25.67;;;23.93;;
16387;SDS011;8303;53.446;9.988;2023-03-12T11:30:50;27.40;;;25.47;;
16387;SDS011;8303;53.446;9.988;2023-03-12T11:33:20;32.43;;;30.47;;
16387;SDS011;8303;53.446;9.988;2023-03-12T11:35:48;26.97;;;25.13;;
16387;SDS011;8303;53.446;9.988;2023-03-12T11:38:27;34.07;;;31.97;;
16387;SDS011;8303;53.446;9.988;2023-03-12T11:41:01;26.33;;;24.03;;
16387;SDS011;8303;53.446;9.988;2023-03-12T11:43:42;44.57;;;41.87;;
16387;SDS011;8303;53.446;9.988;2023-03-12T11:46:21;28.13;;;25.73;;
16387;SDS011;8303;53.446;9.988;2023-03-12T11:49:02;42.93;;;40.47;;
16387;SDS011;8303;53.446;9.988;2023-03-12T11:51:39;31.53;;;29.47;;
16387;SDS011;8303;53.446;9.988;2023-03-12T11:54:22;26.87;;;24.87;;
16387;SDS011;8303;53.446;9.988;2023-03-12T11:56:58;24.77;;;22.97;;
16387;SDS011;8303;53.446;9.988;2023-03-12T11:59:37;36.53;;;34.10;;
16387;SDS011;8303;53.446;9.988;2023-03-12T12:02:20;26.87;;;25.10;;
16387;SDS011;8303;53.446;9.988;2023-03-12T12:05:03;23.20;;;21.60;;
16387;SDS011;8303;53.446;9.988;2023-03-12T12:07:51;43.47;;;40.93;;
16387;SDS011;8303;53.446;9.988;2023-03-12T12:10:27;23.57;;;22.17;;
16387;SDS011;8303;53.446;9.988;2023-03-12T12:13:03;29.37;;;27.67;;
16387;SDS011;8303;53.446;9.988;2023-03-12T12:15:37;29.77;;;27.57;;
16387;SDS011;8303;53.446;9.988;2023-03-12T12:18:16;24.00;;;22.47;;
16387;SDS011;8303;53.446;9.988;2023-03-12T12:20:53;28.77;;;27.07;;
16387;SDS011;8303;53.446;9.988;2023-03-12T12:23:28;29.37;;;27.73;;
16387;SDS011;8303;53.446;9.988;2023-03-12T12:26:03;25.57;;;23.83;;
16387;SDS011;8303;53.446;9.988;2023-03-12T12:28:53;33.27;;;30.97;;
16387;SDS011;8303;53.446;9.988;2023-03-12T12:31:36;38.57;;;36.27;;
16387;SDS011;8303;53.446;9.988;2023-03-12T12:34:21;26.57;;;24.77;;
16387;SDS011;8303;53.446;9.988;2023-03-12T12:37:13;24.47;;;23.00;;
16387;SDS011;8303;53.446;9.988;2023-03-12T12:39:47;26.87;;;25.17;;
16387;SDS011;8303;53.446;9.988;2023-03-12T12:42:20;31.33;;;29.50;;
16387;SDS011;8303;53.446;9.988;2023-03-12T12:44:52;31.33;;;29.47;;
16387;SDS011;8303;53.446;9.988;2023-03-12T12:47:21;28.40;;;26.63;;
16387;SDS011;8303;53.446;9.988;2023-03-12T12:49:57;32.23;;;30.20;;
16387;SDS011;8303;53.446;9.988;2023-03-12T12:52:27;27.70;;;26.00;;
16387;SDS011;8303;53.446;9.988;2023-03-12T12:54:56;24.33;;;22.73;;
16387;SDS011;8303;53.446;9.988;2023-03-12T12:57:34;28.47;;;26.47;;
16387;SDS011;8303;53.446;9.988;2023-03-12T13:03:01;12.43;;;11.43;;
16387;SDS011;8303;53.446;9.988;2023-03-12T13:05:39;12.33;;;10.83;;
16387;SDS011;8303;53.446;9.988;2023-03-12T13:08:30;12.93;;;12.13;;
16387;SDS011;8303;53.446;9.988;2023-03-12T13:11:01;11.93;;;10.57;;
16387;SDS011;8303;53.446;9.988;2023-03-12T13:13:30;8.83;;;8.00;;
16387;SDS011;8303;53.446;9.988;2023-03-12T13:16:16;10.03;;;8.37;;
16387;SDS011;8303;53.446;9.988;2023-03-12T13:18:56;8.73;;;8.03;;
16387;SDS011;8303;53.446;9.988;2023-03-12T13:21:25;9.30;;;8.43;;
16387;SDS011;8303;53.446;9.988;2023-03-12T13:24:12;12.53;;;8.13;;
16387;SDS011;8303;53.446;9.988;2023-03-12T13:26:53;9.07;;;7.10;;
16387;SDS011;8303;53.446;9.988;2023-03-12T13:29:35;8.50;;;6.23;;
16387;SDS011;8303;53.446;9.988;2023-03-12T13:32:06;7.37;;;6.67;;
16387;SDS011;8303;53.446;9.988;2023-03-12T13:34:40;10.37;;;8.17;;
16387;SDS011;8303;53.446;9.988;2023-03-12T13:37:16;9.50;;;7.23;;
16387;SDS011;8303;53.446;9.988;2023-03-12T13:40:13;13.03;;;7.30;;
16387;SDS011;8303;53.446;9.988;2023-03-12T13:43:05;8.33;;;6.63;;
16387;SDS011;8303;53.446;9.988;2023-03-12T13:45:39;8.23;;;7.43;;
16387;SDS011;8303;53.446;9.988;2023-03-12T13:48:19;7.37;;;5.60;;
16387;SDS011;8303;53.446;9.988;2023-03-12T13:50:48;6.50;;;5.93;;
16387;SDS011;8303;53.446;9.988;2023-03-12T13:53:19;7.00;;;5.47;;
16387;SDS011;8303;53.446;9.988;2023-03-12T13:55:58;7.90;;;5.60;;
16387;SDS011;8303;53.446;9.988;2023-03-12T13:58:27;9.83;;;5.87;;
16387;SDS011;8303;53.446;9.988;2023-03-12T14:00:56;5.77;;;4.80;;
16387;SDS011;8303;53.446;9.988;2023-03-12T14:03:28;8.70;;;6.50;;
16387;SDS011;8303;53.446;9.988;2023-03-12T14:05:59;5.80;;;5.17;;
16387;SDS011;8303;53.446;9.988;2023-03-12T14:08:41;5.80;;;5.30;;
16387;SDS011;8303;53.446;9.988;2023-03-12T14:11:33;6.50;;;5.00;;
16387;SDS011;8303;53.446;9.988;2023-03-12T14:14:12;9.03;;;5.20;;
16387;SDS011;8303;53.446;9.988;2023-03-12T14:16:52;5.90;;;5.27;;
16387;SDS011;8303;53.446;9.988;2023-03-12T14:19:23;7.20;;;5.37;;
16387;SDS011;8303;53.446;9.988;2023-03-12T14:21:52;5.30;;;4.80;;
16387;SDS011;8303;53.446;9.988;2023-03-12T14:24:22;9.03;;;5.07;;
16387;SDS011;8303;53.446;9.988;2023-03-12T14:26:54;7.33;;;5.50;;
16387;SDS011;8303;53.446;9.988;2023-03-12T14:29:24;10.20;;;5.67;;
16387;SDS011;8303;53.446;9.988;2023-03-12T14:31:55;6.93;;;5.47;;
16387;SDS011;8303;53.446;9.988;2023-03-12T14:34:26;8.83;;;5.63;;
16387;SDS011;8303;53.446;9.988;2023-03-12T14:36:57;8.80;;;5.83;;
16387;SDS011;8303;53.446;9.988;2023-03-12T14:39:29;8.73;;;6.57;;
16387;SDS011;8303;53.446;9.988;2023-03-12T14:42:01;6.73;;;5.97;;
16387;SDS011;8303;53.446;9.988;2023-03-12T14:44:31;7.20;;;5.67;;
16387;SDS011;8303;53.446;9.988;2023-03-12T14:46:59;7.70;;;5.27;;
16387;SDS011;8303;53.446;9.988;2023-03-12T14:49:28;9.03;;;5.50;;
16387;SDS011;8303;53.446;9.988;2023-03-12T14:51:56;10.10;;;5.77;;
16387;SDS011;8303;53.446;9.988;2023-03-12T14:54:24;7.43;;;5.90;;
16387;SDS011;8303;53.446;9.988;2023-03-12T14:56:53;11.40;;;6.20;;
16387;SDS011;8303;53.446;9.988;2023-03-12T14:59:22;7.03;;;6.33;;
16387;SDS011;8303;53.446;9.988;2023-03-12T15:01:51;6.40;;;5.80;;
16387;SDS011;8303;53.446;9.988;2023-03-12T15:04:24;6.00;;;5.50;;
16387;SDS011;8303;53.446;9.988;2023-03-12T15:06:52;6.27;;;5.60;;
16387;SDS011;8303;53.446;9.988;2023-03-12T15:09:23;11.23;;;6.47;;
16387;SDS011;8303;53.446;9.988;2023-03-12T15:11:52;10.63;;;6.07;;
16387;SDS011;8303;53.446;9.988;2023-03-12T15:14:22;8.90;;;6.93;;
16387;SDS011;8303;53.446;9.988;2023-03-12T15:16:51;7.17;;;6.43;;
16387;SDS011;8303;53.446;9.988;2023-03-12T15:19:19;8.93;;;5.83;;
16387;SDS011;8303;53.446;9.988;2023-03-12T15:21:50;10.67;;;6.37;;
16387;SDS011;8303;53.446;9.988;2023-03-12T15:24:17;7.63;;;6.93;;
16387;SDS011;8303;53.446;9.988;2023-03-12T15:26:45;7.57;;;6.90;;
16387;SDS011;8303;53.446;9.988;2023-03-12T15:29:19;7.40;;;6.27;;
16387;SDS011;8303;53.446;9.988;2023-03-12T15:31:52;7.73;;;6.93;;
16387;SDS011;8303;53.446;9.988;2023-03-12T15:34:28;6.30;;;5.70;;
16387;SDS011;8303;53.446;9.988;2023-03-12T15:36:57;7.00;;;6.33;;
16387;SDS011;8303;53.446;9.988;2023-03-12T15:39:24;8.93;;;7.20;;
16387;SDS011;8303;53.446;9.988;2023-03-12T15:41:54;6.53;;;5.83;;
16387;SDS011;8303;53.446;9.988;2023-03-12T15:44:27;11.37;;;6.70;;
16387;SDS011;8303;53.446;9.988;2023-03-12T15:47:01;8.87;;;6.20;;
16387;SDS011;8303;53.446;9.988;2023-03-12T15:49:31;12.60;;;11.60;;
16387;SDS011;8303;53.446;9.988;2023-03-12T15:52:04;8.17;;;6.03;;
16387;SDS011;8303;53.446;9.988;2023-03-12T15:54:32;7.23;;;6.53;;
16387;SDS011;8303;53.446;9.988;2023-03-12T15:57:14;6.53;;;6.03;;
16387;SDS011;8303;53.446;9.988;2023-03-12T15:59:50;7.03;;;6.33;;
16387;SDS011;8303;53.446;9.988;2023-03-12T16:02:36;6.43;;;5.83;;
16387;SDS011;8303;53.446;9.988;2023-03-12T16:05:04;8.97;;;7.00;;
16387;SDS011;8303;53.446;9.988;2023-03-12T16:07:32;7.13;;;6.43;;
16387;SDS011;8303;53.446;9.988;2023-03-12T16:09:58;10.60;;;7.07;;
16387;SDS011;8303;53.446;9.988;2023-03-12T16:12:26;7.87;;;6.57;;
16387;SDS011;8303;53.446;9.988;2023-03-12T16:14:54;8.67;;;6.90;;
16387;SDS011;8303;53.446;9.988;2023-03-12T16:17:21;7.53;;;6.63;;
16387;SDS011;8303;53.446;9.988;2023-03-12T16:19:49;7.53;;;6.70;;
16387;SDS011;8303;53.446;9.988;2023-03-12T16:22:15;7.33;;;6.63;;
16387;SDS011;8303;53.446;9.988;2023-03-12T16:24:46;7.20;;;6.60;;
16387;SDS011;8303;53.446;9.988;2023-03-12T16:27:13;8.23;;;7.37;;
16387;SDS011;8303;53.446;9.988;2023-03-12T16:29:41;7.60;;;6.80;;
16387;SDS011;8303;53.446;9.988;2023-03-12T16:32:11;7.13;;;6.43;;
16387;SDS011;8303;53.446;9.988;2023-03-12T16:34:39;7.27;;;6.57;;
16387;SDS011;8303;53.446;9.988;2023-03-12T16:37:07;8.43;;;7.60;;
16387;SDS011;8303;53.446;9.988;2023-03-12T16:39:35;8.93;;;7.70;;
16387;SDS011;8303;53.446;9.988;2023-03-12T16:42:18;8.30;;;6.87;;
16387;SDS011;8303;53.446;9.988;2023-03-12T16:44:46;8.60;;;7.67;;
16387;SDS011;8303;53.446;9.988;2023-03-12T16:47:15;9.57;;;8.10;;
16387;SDS011;8303;53.446;9.988;2023-03-12T16:49:42;7.53;;;6.80;;
16387;SDS011;8303;53.446;9.988;2023-03-12T16:52:14;10.27;;;7.60;;
16387;SDS011;8303;53.446;9.988;2023-03-12T16:54:42;10.83;;;7.73;;
16387;SDS011;8303;53.446;9.988;2023-03-12T16:57:10;7.80;;;7.10;;
16387;SDS011;8303;53.446;9.988;2023-03-12T16:59:44;8.70;;;7.90;;
16387;SDS011;8303;53.446;9.988;2023-03-12T17:02:13;8.83;;;7.53;;
16387;SDS011;8303;53.446;9.988;2023-03-12T17:04:43;9.63;;;8.63;;
16387;SDS011;8303;53.446;9.988;2023-03-12T17:07:10;8.53;;;7.73;;
16387;SDS011;8303;53.446;9.988;2023-03-12T17:09:37;8.97;;;8.07;;
16387;SDS011;8303;53.446;9.988;2023-03-12T17:12:04;9.77;;;8.80;;
16387;SDS011;8303;53.446;9.988;2023-03-12T17:14:44;10.63;;;9.00;;
16387;SDS011;8303;53.446;9.988;2023-03-12T17:17:11;10.30;;;8.97;;
16387;SDS011;8303;53.446;9.988;2023-03-12T17:19:39;14.87;;;8.80;;
16387;SDS011;8303;53.446;9.988;2023-03-12T17:22:06;9.83;;;8.83;;
16387;SDS011;8303;53.446;9.988;2023-03-12T17:24:33;11.33;;;10.03;;
16387;SDS011;8303;53.446;9.988;2023-03-12T17:27:00;12.60;;;10.27;;
16387;SDS011;8303;53.446;9.988;2023-03-12T17:29:27;10.87;;;9.70;;
16387;SDS011;8303;53.446;9.988;2023-03-12T17:31:54;14.77;;;10.27;;
16387;SDS011;8303;53.446;9.988;2023-03-12T17:34:21;10.97;;;9.87;;
16387;SDS011;8303;53.446;9.988;2023-03-12T17:36:49;13.70;;;10.40;;
16387;SDS011;8303;53.446;9.988;2023-03-12T17:39:16;12.77;;;9.83;;
16387;SDS011;8303;53.446;9.988;2023-03-12T17:41:43;11.47;;;10.27;;
16387;SDS011;8303;53.446;9.988;2023-03-12T17:44:10;13.07;;;11.10;;
16387;SDS011;8303;53.446;9.988;2023-03-12T17:46:38;11.33;;;10.03;;
16387;SDS011;8303;53.446;9.988;2023-03-12T17:49:05;18.67;;;10.60;;
16387;SDS011;8303;53.446;9.988;2023-03-12T17:51:32;11.93;;;10.07;;
16387;SDS011;8303;53.446;9.988;2023-03-12T17:54:01;20.50;;;12.13;;
16387;SDS011;8303;53.446;9.988;2023-03-12T17:56:28;16.83;;;12.47;;
16387;SDS011;8303;53.446;9.988;2023-03-12T17:58:55;23.47;;;14.10;;
16387;SDS011;8303;53.446;9.988;2023-03-12T18:01:22;21.17;;;14.37;;
16387;SDS011;8303;53.446;9.988;2023-03-12T18:03:49;19.00;;;13.93;;
16387;SDS011;8303;53.446;9.988;2023-03-12T18:06:16;20.87;;;14.03;;
16387;SDS011;8303;53.446;9.988;2023-03-12T18:08:43;23.43;;;15.87;;
16387;SDS011;8303;53.446;9.988;2023-03-12T18:11:11;22.07;;;16.00;;
16387;SDS011;8303;53.446;9.988;2023-03-12T18:13:38;23.27;;;16.43;;
16387;SDS011;8303;53.446;9.988;2023-03-12T18:16:05;29.67;;;17.70;;
16387;SDS011;8303;53.446;9.988;2023-03-12T18:18:32;28.57;;;16.90;;
16387;SDS011;8303;53.446;9.988;2023-03-12T18:20:59;27.83;;;18.13;;
16387;SDS011;8303;53.446;9.988;2023-03-12T18:23:26;24.53;;;17.47;;
16387;SDS011;8303;53.446;9.988;2023-03-12T18:25:52;25.00;;;17.20;;
16387;SDS011;8303;53.446;9.988;2023-03-12T18:28:21;26.27;;;17.50;;
16387;SDS011;8303;53.446;9.988;2023-03-12T18:30:48;28.17;;;16.70;;
16387;SDS011;8303;53.446;9.988;2023-03-12T18:33:15;23.97;;;16.03;;
16387;SDS011;8303;53.446;9.988;2023-03-12T18:35:42;24.70;;;16.93;;
16387;SDS011;8303;53.446;9.988;2023-03-12T18:38:09;29.13;;;17.47;;
16387;SDS011;8303;53.446;9.988;2023-03-12T18:40:36;31.07;;;18.20;;
16387;SDS011;8303;53.446;9.988;2023-03-12T18:43:03;30.63;;;18.50;;
16387;SDS011;8303;53.446;9.988;2023-03-12T18:45:31;41.77;;;19.83;;
16387;SDS011;8303;53.446;9.988;2023-03-12T18:47:58;32.93;;;19.27;;
16387;SDS011;8303;53.446;9.988;2023-03-12T18:50:25;37.13;;;21.27;;
16387;SDS011;8303;53.446;9.988;2023-03-12T18:52:52;41.57;;;22.20;;
16387;SDS011;8303;53.446;9.988;2023-03-12T18:55:19;43.77;;;22.40;;
16387;SDS011;8303;53.446;9.988;2023-03-12T18:57:46;48.53;;;24.13;;
16387;SDS011;8303;53.446;9.988;2023-03-12T19:00:14;73.30;;;35.30;;
16387;SDS011;8303;53.446;9.988;2023-03-12T19:02:44;53.83;;;25.30;;
16387;SDS011;8303;53.446;9.988;2023-03-12T19:05:11;53.47;;;24.60;;
16387;SDS011;8303;53.446;9.988;2023-03-12T19:07:38;60.90;;;26.33;;
16387;SDS011;8303;53.446;9.988;2023-03-12T19:10:06;51.70;;;25.57;;
16387;SDS011;8303;53.446;9.988;2023-03-12T19:12:33;56.97;;;26.13;;
16387;SDS011;8303;53.446;9.988;2023-03-12T19:15:00;54.83;;;25.10;;
16387;SDS011;8303;53.446;9.988;2023-03-12T19:17:27;48.33;;;24.93;;
16387;SDS011;8303;53.446;9.988;2023-03-12T19:19:56;60.73;;;26.07;;
16387;SDS011;8303;53.446;9.988;2023-03-12T19:22:23;57.00;;;25.70;;
16387;SDS011;8303;53.446;9.988;2023-03-12T19:24:50;63.50;;;26.27;;
16387;SDS011;8303;53.446;9.988;2023-03-12T19:27:18;54.20;;;28.87;;
16387;SDS011;8303;53.446;9.988;2023-03-12T19:29:45;68.53;;;28.13;;
16387;SDS011;8303;53.446;9.988;2023-03-12T19:32:11;62.80;;;27.27;;
16387;SDS011;8303;53.446;9.988;2023-03-12T19:34:38;60.97;;;28.87;;
16387;SDS011;8303;53.446;9.988;2023-03-12T19:37:06;66.07;;;29.37;;
16387;SDS011;8303;53.446;9.988;2023-03-12T19:39:33;69.23;;;28.07;;
16387;SDS011;8303;53.446;9.988;2023-03-12T19:42:00;71.87;;;29.23;;
16387;SDS011;8303;53.446;9.988;2023-03-12T19:44:27;63.97;;;29.83;;
16387;SDS011;8303;53.446;9.988;2023-03-12T19:46:57;67.77;;;28.80;;
16387;SDS011;8303;53.446;9.988;2023-03-12T19:49:26;61.27;;;31.73;;
16387;SDS011;8303;53.446;9.988;2023-03-12T19:51:53;69.73;;;31.67;;
16387;SDS011;8303;53.446;9.988;2023-03-12T19:54:22;71.67;;;30.80;;
16387;SDS011;8303;53.446;9.988;2023-03-12T19:56:49;72.47;;;30.17;;
16387;SDS011;8303;53.446;9.988;2023-03-12T19:59:16;72.43;;;30.17;;
16387;SDS011;8303;53.446;9.988;2023-03-12T20:01:43;69.30;;;28.27;;
16387;SDS011;8303;53.446;9.988;2023-03-12T20:04:10;65.60;;;28.00;;
16387;SDS011;8303;53.446;9.988;2023-03-12T20:06:37;69.07;;;27.20;;
16387;SDS011;8303;53.446;9.988;2023-03-12T20:09:04;69.43;;;28.33;;
16387;SDS011;8303;53.446;9.988;2023-03-12T20:11:33;65.97;;;27.67;;
16387;SDS011;8303;53.446;9.988;2023-03-12T20:14:00;66.30;;;26.03;;
16387;SDS011;8303;53.446;9.988;2023-03-12T20:16:27;73.47;;;27.67;;
16387;SDS011;8303;53.446;9.988;2023-03-12T20:18:54;67.90;;;26.40;;
16387;SDS011;8303;53.446;9.988;2023-03-12T20:21:21;59.13;;;24.03;;
16387;SDS011;8303;53.446;9.988;2023-03-12T20:23:48;64.50;;;24.57;;
16387;SDS011;8303;53.446;9.988;2023-03-12T20:26:15;56.50;;;22.80;;
16387;SDS011;8303;53.446;9.988;2023-03-12T20:28:43;62.40;;;22.77;;
16387;SDS011;8303;53.446;9.988;2023-03-12T20:31:11;49.17;;;21.47;;
16387;SDS011;8303;53.446;9.988;2023-03-12T20:33:39;67.70;;;20.60;;
16387;SDS011;8303;53.446;9.988;2023-03-12T20:36:08;56.87;;;21.10;;
16387;SDS011;8303;53.446;9.988;2023-03-12T20:38:37;51.97;;;20.53;;
16387;SDS011;8303;53.446;9.988;2023-03-12T20:41:04;53.23;;;21.73;;
16387;SDS011;8303;53.446;9.988;2023-03-12T20:43:37;48.27;;;19.70;;
16387;SDS011;8303;53.446;9.988;2023-03-12T20:46:05;52.93;;;20.13;;
16387;SDS011;8303;53.446;9.988;2023-03-12T20:48:32;45.17;;;20.10;;
16387;SDS011;8303;53.446;9.988;2023-03-12T20:51:00;47.90;;;18.57;;
16387;SDS011;8303;53.446;9.988;2023-03-12T20:53:27;57.63;;;19.87;;
16387;SDS011;8303;53.446;9.988;2023-03-12T20:55:55;46.33;;;20.83;;